Time;durP1;ratioP1;P1;durP2;ratioP2;P2;SDS_P1;SDS_P2;PMS_P1;PMS_P2;Temp;Humidity;BMP_temperature;BMP_pressure;BME280_temperature;BME280_humidity;BME280_pressure;Samples;Min_cycle;Max_cycle;Signal;HPM_P1;HPM_P2
2020/12/23 00:00:15;;;;;;;14.83;2.77;;;5.90;91.80;;;;;;4973991;28;20591;-74
2020/12/23 00:02:41;;;;;;;14.07;2.50;;;5.90;92.10;;;;;;4973221;28;20515;-74
2020/12/23 00:05:14;;;;;;;14.07;2.90;;;5.90;91.90;;;;;;4973592;28;20118;-74
2020/12/23 00:07:40;;;;;;;14.13;2.67;;;5.90;92.00;;;;;;4973246;28;20094;-74
2020/12/23 00:10:07;;;;;;;16.20;2.90;;;5.80;92.20;;;;;;4972683;28;20101;-74
2020/12/23 00:12:33;;;;;;;11.67;3.10;;;5.90;92.10;;;;;;4973387;28;20118;-74
2020/12/23 00:15:00;;;;;;;9.87;2.90;;;5.90;92.00;;;;;;4971548;28;20039;-74
2020/12/23 00:17:26;;;;;;;13.47;3.13;;;5.80;91.90;;;;;;4973563;28;20035;-74
2020/12/23 00:19:52;;;;;;;13.20;2.80;;;5.80;91.90;;;;;;4973121;28;20042;-74
2020/12/23 00:22:18;;;;;;;10.47;2.73;;;5.70;91.80;;;;;;4971858;28;20038;-74
2020/12/23 00:24:44;;;;;;;8.80;2.37;;;5.70;91.80;;;;;;4971776;28;20034;-74
2020/12/23 00:27:10;;;;;;;13.50;2.90;;;5.60;91.90;;;;;;4971486;28;20039;-73
2020/12/23 00:29:37;;;;;;;11.93;2.83;;;5.50;91.80;;;;;;4973443;28;20039;-73
2020/12/23 00:32:03;;;;;;;12.77;2.37;;;5.50;91.80;;;;;;4972508;28;20580;-74
2020/12/23 00:34:29;;;;;;;13.40;2.80;;;5.30;91.60;;;;;;4973078;28;20385;-74
2020/12/23 00:37:00;;;;;;;10.30;2.40;;;5.30;91.70;;;;;;4973186;28;20049;-74
2020/12/23 00:39:26;;;;;;;10.30;2.60;;;5.10;91.70;;;;;;4972443;28;20054;-73
2020/12/23 00:41:52;;;;;;;14.17;3.10;;;5.00;91.70;;;;;;4971633;28;20134;-74
2020/12/23 00:44:18;;;;;;;12.47;2.70;;;4.90;91.70;;;;;;4971204;28;20441;-74
2020/12/23 00:46:44;;;;;;;11.73;2.97;;;4.90;91.80;;;;;;4972781;28;20039;-74
2020/12/23 00:49:11;;;;;;;15.07;3.17;;;4.70;91.80;;;;;;4971780;28;20027;-74
2020/12/23 00:51:37;;;;;;;15.97;3.40;;;4.70;91.80;;;;;;4972423;28;20109;-73
2020/12/23 00:54:03;;;;;;;14.80;2.87;;;4.60;91.90;;;;;;4972705;28;20547;-74
2020/12/23 00:56:32;;;;;;;12.17;3.30;;;4.60;92.00;;;;;;4970241;28;20035;-74
2020/12/23 00:58:58;;;;;;;20.60;3.73;;;4.50;91.90;;;;;;4972852;28;20130;-74
2020/12/23 01:01:24;;;;;;;16.50;3.70;;;4.40;91.90;;;;;;4971152;28;20045;-73
2020/12/23 01:03:49;;;;;;;11.67;2.90;;;4.40;92.00;;;;;;4971001;28;20039;-74
2020/12/23 01:06:15;;;;;;;16.07;3.57;;;4.30;92.00;;;;;;4972030;28;20097;-73
2020/12/23 01:08:42;;;;;;;11.40;3.30;;;4.30;92.00;;;;;;4972115;28;20047;-74
2020/12/23 01:11:10;;;;;;;14.53;2.97;;;4.20;91.90;;;;;;4972799;28;20117;-74
2020/12/23 01:13:36;;;;;;;15.20;3.13;;;4.10;92.00;;;;;;4971459;28;20054;-74
2020/12/23 01:16:03;;;;;;;13.80;3.80;;;4.00;92.00;;;;;;4971447;28;20088;-74
2020/12/23 01:18:29;;;;;;;12.00;3.53;;;4.00;92.20;;;;;;4971121;28;20089;-74
2020/12/23 01:20:54;;;;;;;14.20;3.83;;;4.00;92.20;;;;;;4972017;28;20043;-74
2020/12/23 01:23:21;;;;;;;19.23;4.10;;;3.90;92.10;;;;;;4972128;28;20053;-74
2020/12/23 01:25:54;;;;;;;11.47;4.07;;;3.80;92.20;;;;;;4970344;28;20475;-74
2020/12/23 01:28:20;;;;;;;15.43;3.90;;;3.80;92.20;;;;;;5003461;28;20046;-74
2020/12/23 01:30:47;;;;;;;20.37;4.17;;;3.80;92.20;;;;;;4972315;28;20118;-74
2020/12/23 01:33:13;;;;;;;15.57;3.90;;;3.70;92.30;;;;;;4971629;28;20039;-74
2020/12/23 01:35:38;;;;;;;13.33;3.23;;;3.70;92.30;;;;;;5003200;28;20043;-74
2020/12/23 01:38:05;;;;;;;14.13;3.70;;;3.70;92.30;;;;;;4971681;28;20053;-74
2020/12/23 01:40:31;;;;;;;10.47;4.17;;;3.60;92.30;;;;;;4972798;28;20093;-74
2020/12/23 01:42:57;;;;;;;13.50;3.33;;;3.60;92.30;;;;;;4971812;28;20034;-74
2020/12/23 01:45:23;;;;;;;16.27;3.70;;;3.60;92.60;;;;;;4971689;28;20034;-74
2020/12/23 01:47:49;;;;;;;11.67;3.10;;;3.50;92.30;;;;;;4970667;28;20542;-74
2020/12/23 01:50:15;;;;;;;11.17;3.20;;;3.50;92.30;;;;;;4970232;28;20492;-73
2020/12/23 01:52:42;;;;;;;11.23;2.90;;;3.40;92.30;;;;;;4970480;28;20038;-74
2020/12/23 01:55:11;;;;;;;13.43;3.50;;;3.40;92.30;;;;;;4971784;28;20051;-74
2020/12/23 01:57:37;;;;;;;13.83;3.00;;;3.30;92.30;;;;;;4971753;28;20035;-74
2020/12/23 02:00:06;;;;;;;13.13;3.33;;;3.30;92.40;;;;;;4973362;28;20126;-74
2020/12/23 02:02:43;;;;;;;8.93;3.30;;;3.30;92.40;;;;;;4975505;28;20466;-74
2020/12/23 02:05:10;;;;;;;17.30;3.17;;;3.30;92.40;;;;;;4975665;28;20047;-74
2020/12/23 02:07:37;;;;;;;9.97;3.03;;;3.20;92.50;;;;;;4974128;28;20461;-74
2020/12/23 02:10:06;;;;;;;14.23;3.20;;;3.20;92.50;;;;;;4975866;28;20045;-74
2020/12/23 02:12:32;;;;;;;9.63;2.37;;;3.20;92.60;;;;;;4975150;28;20443;-73
2020/12/23 02:15:16;;;;;;;10.93;2.83;;;3.20;92.50;;;;;;4973845;28;20034;-74
2020/12/23 02:17:42;;;;;;;10.83;2.93;;;3.10;92.50;;;;;;4957974;28;20045;-74
2020/12/23 02:20:10;;;;;;;13.83;3.07;;;3.10;92.50;;;;;;4975619;28;20114;-74
2020/12/23 02:22:39;;;;;;;10.83;2.83;;;3.00;92.50;;;;;;4975356;28;20122;-74
2020/12/23 02:25:06;;;;;;;10.43;3.00;;;3.00;92.50;;;;;;5006362;28;20027;-74
2020/12/23 02:27:32;;;;;;;11.00;2.97;;;2.90;92.50;;;;;;4974253;28;20045;-74
2020/12/23 02:29:59;;;;;;;12.80;3.20;;;2.80;92.50;;;;;;4975007;28;20050;-74
2020/12/23 02:32:26;;;;;;;12.00;3.30;;;2.80;92.60;;;;;;4975192;28;20066;-74
2020/12/23 02:34:53;;;;;;;12.77;2.80;;;2.80;92.70;;;;;;4974734;28;20042;-73
2020/12/23 02:37:20;;;;;;;12.00;2.83;;;2.70;92.60;;;;;;4975354;28;20150;-74
2020/12/23 02:39:52;;;;;;;9.10;2.90;;;2.70;92.60;;;;;;4975572;28;20488;-74
2020/12/23 02:42:19;;;;;;;7.03;2.40;;;2.70;92.80;;;;;;4973385;28;20492;-74
2020/12/23 02:44:47;;;;;;;10.80;2.80;;;2.70;92.70;;;;;;4974949;28;20031;-74
2020/12/23 02:47:15;;;;;;;10.60;2.73;;;2.70;92.60;;;;;;4974755;28;20043;-73
2020/12/23 02:49:42;;;;;;;9.57;2.83;;;2.60;92.60;;;;;;4975249;28;20052;-74
2020/12/23 02:52:08;;;;;;;14.73;3.60;;;2.60;92.70;;;;;;4974385;28;20027;-73
2020/12/23 02:54:35;;;;;;;12.67;3.00;;;2.60;92.80;;;;;;4974964;28;20030;-74
2020/12/23 02:57:02;;;;;;;14.87;3.20;;;2.60;92.80;;;;;;4974856;28;20528;-74
2020/12/23 02:59:27;;;;;;;11.33;2.53;;;2.60;92.80;;;;;;4974621;28;20423;-73
2020/12/23 03:01:53;;;;;;;6.63;2.60;;;2.60;92.80;;;;;;4974675;28;20045;-74
2020/12/23 03:04:19;;;;;;;11.60;2.70;;;2.50;92.70;;;;;;4974069;28;20066;-74
2020/12/23 03:06:45;;;;;;;12.10;2.83;;;2.50;92.70;;;;;;4974762;28;20568;-74
2020/12/23 03:09:12;;;;;;;11.10;2.80;;;2.40;92.70;;;;;;4974888;28;20030;-74
2020/12/23 03:11:39;;;;;;;10.60;2.70;;;2.40;92.80;;;;;;4974150;28;20089;-74
2020/12/23 03:14:05;;;;;;;11.63;2.87;;;2.40;92.80;;;;;;4974565;28;20043;-74
2020/12/23 03:16:31;;;;;;;14.57;3.03;;;2.40;92.80;;;;;;4973910;28;20432;-73
2020/12/23 03:18:57;;;;;;;9.10;2.60;;;2.40;92.70;;;;;;4974730;28;20058;-74
2020/12/23 03:21:24;;;;;;;12.43;2.70;;;2.30;92.70;;;;;;4974675;28;20039;-74
2020/12/23 03:23:49;;;;;;;10.07;2.60;;;2.30;92.70;;;;;;4973928;28;20031;-74
2020/12/23 03:26:15;;;;;;;13.93;2.57;;;2.20;92.70;;;;;;4973991;28;20031;-74
2020/12/23 03:28:41;;;;;;;11.67;2.80;;;2.20;92.80;;;;;;4972791;28;20038;-73
2020/12/23 03:31:07;;;;;;;12.70;2.90;;;2.20;92.80;;;;;;4973122;28;20045;-74
2020/12/23 03:33:33;;;;;;;10.60;2.70;;;2.10;92.80;;;;;;4974165;28;20038;-74
2020/12/23 03:36:00;;;;;;;11.77;2.57;;;2.10;92.80;;;;;;4972465;28;20050;-74
2020/12/23 03:38:26;;;;;;;9.07;2.40;;;2.10;92.90;;;;;;4974267;28;20035;-74
2020/12/23 03:40:53;;;;;;;11.97;3.73;;;2.10;93.10;;;;;;4973985;28;20086;-70
2020/12/23 03:43:18;;;;;;;10.53;2.50;;;2.00;92.80;;;;;;4973807;28;20046;-74
2020/12/23 03:45:44;;;;;;;11.77;2.97;;;2.00;92.90;;;;;;4974000;28;20045;-74
2020/12/23 03:48:10;;;;;;;7.60;2.30;;;2.00;93.10;;;;;;4973537;28;20092;-73
2020/12/23 03:50:36;;;;;;;8.67;2.20;;;2.00;92.90;;;;;;4974213;28;20043;-74
2020/12/23 03:53:02;;;;;;;13.50;2.70;;;2.00;92.90;;;;;;4973367;28;20408;-73
2020/12/23 03:55:28;;;;;;;11.20;2.97;;;2.00;92.90;;;;;;4973777;28;20039;-74
2020/12/23 03:57:53;;;;;;;14.83;2.90;;;1.90;92.90;;;;;;4973975;28;20439;-74
2020/12/23 04:00:19;;;;;;;14.77;3.20;;;1.90;93.10;;;;;;4973482;28;20511;-74
2020/12/23 04:02:45;;;;;;;9.97;2.90;;;1.90;93.30;;;;;;4972337;28;20043;-74
2020/12/23 04:05:11;;;;;;;13.63;3.03;;;2.00;93.80;;;;;;4973080;28;20089;-72
2020/12/23 04:07:37;;;;;;;10.37;3.10;;;2.10;94.00;;;;;;4973648;28;20043;-74
2020/12/23 04:10:07;;;;;;;14.37;3.20;;;2.10;94.10;;;;;;4973644;28;20571;-74
2020/12/23 04:12:35;;;;;;;9.02;2.75;;;2.30;94.10;;;;;;4955524;28;20062;-74
2020/12/23 04:15:04;;;;;;;8.00;2.10;;;2.40;94.00;;;;;;4972701;28;20049;-74
2020/12/23 04:17:30;;;;;;;7.30;2.07;;;2.50;93.90;;;;;;4972439;28;20381;-74
2020/12/23 04:19:56;;;;;;;9.27;2.27;;;2.50;93.80;;;;;;4973569;28;20066;-74
2020/12/23 04:22:21;;;;;;;11.10;2.50;;;2.50;93.70;;;;;;4971782;28;20038;-74
2020/12/23 04:24:47;;;;;;;10.70;2.60;;;2.60;93.70;;;;;;4972736;28;20758;-74
2020/12/23 04:27:13;;;;;;;10.93;3.10;;;2.60;93.70;;;;;;4973275;28;20500;-74
2020/12/23 04:29:38;;;;;;;11.40;3.00;;;2.60;93.70;;;;;;4972309;28;20062;-74
2020/12/23 04:32:04;;;;;;;12.03;3.30;;;2.60;93.50;;;;;;4971662;28;20042;-74
2020/12/23 04:34:30;;;;;;;12.73;3.50;;;2.50;93.20;;;;;;4973140;28;20037;-74
2020/12/23 04:36:55;;;;;;;12.53;3.43;;;2.50;93.00;;;;;;4972686;28;20053;-74
2020/12/23 04:39:21;;;;;;;15.57;3.80;;;2.40;93.10;;;;;;4971824;28;20065;-74
2020/12/23 04:41:47;;;;;;;12.70;3.77;;;2.40;93.20;;;;;;4972354;28;20041;-74
2020/12/23 04:44:12;;;;;;;10.63;3.47;;;2.40;93.40;;;;;;4972810;28;20039;-74
2020/12/23 04:46:41;;;;;;;13.50;3.33;;;2.40;93.50;;;;;;4972931;28;20527;-74
2020/12/23 04:49:08;;;;;;;8.57;3.10;;;2.30;93.50;;;;;;4972674;28;20113;-74
2020/12/23 04:51:36;;;;;;;12.67;3.43;;;2.40;93.60;;;;;;4970792;28;20488;-74
2020/12/23 04:54:05;;;;;;;13.57;3.10;;;2.40;93.60;;;;;;4972136;28;20054;-73
2020/12/23 04:56:33;;;;;;;9.37;3.27;;;2.40;93.50;;;;;;4962420;28;20479;-74
2020/12/23 04:59:00;;;;;;;13.40;3.00;;;2.40;93.60;;;;;;5009896;28;20185;-74
2020/12/23 05:01:26;;;;;;;12.40;3.50;;;2.40;93.70;;;;;;5010616;28;20562;-74
2020/12/23 05:03:52;;;;;;;13.50;4.00;;;2.50;93.80;;;;;;4992717;28;20168;-74
2020/12/23 05:06:19;;;;;;;13.40;3.77;;;2.50;93.90;;;;;;5010103;28;20094;-74
2020/12/23 05:08:45;;;;;;;16.63;4.07;;;2.50;94.00;;;;;;5010386;28;20458;-74
2020/12/23 05:11:12;;;;;;;13.20;3.53;;;2.60;94.30;;;;;;5011635;28;20149;-74
2020/12/23 05:13:38;;;;;;;12.30;4.20;;;2.70;94.20;;;;;;5010850;28;20049;-74
2020/12/23 05:16:05;;;;;;;12.97;4.27;;;2.70;94.20;;;;;;5011407;28;20131;-74
2020/12/23 05:18:35;;;;;;;16.80;4.17;;;2.80;94.50;;;;;;5011271;28;20125;-74
2020/12/23 05:21:02;;;;;;;19.08;5.00;;;2.90;94.20;;;;;;5011640;28;20042;-74
2020/12/23 05:23:31;;;;;;;21.67;4.73;;;3.00;94.30;;;;;;5010700;28;20038;-73
2020/12/23 05:26:04;;;;;;;21.33;4.53;;;3.10;94.30;;;;;;5011246;28;20044;-74
2020/12/23 05:28:31;;;;;;;18.57;4.57;;;3.10;94.30;;;;;;5010796;28;20048;-74
2020/12/23 05:30:57;;;;;;;24.23;6.23;;;3.20;94.20;;;;;;5011397;28;20044;-74
2020/12/23 05:33:23;;;;;;;32.50;6.60;;;3.20;94.20;;;;;;5010088;28;20084;-74
2020/12/23 05:35:49;;;;;;;26.60;6.93;;;3.30;94.30;;;;;;5010680;28;20053;-74
2020/12/23 05:38:21;;;;;;;30.07;7.37;;;3.30;94.20;;;;;;5010006;28;20034;-74
2020/12/23 05:40:47;;;;;;;46.63;8.07;;;3.30;94.20;;;;;;5009638;28;20034;-74
2020/12/23 05:43:14;;;;;;;49.60;8.20;;;3.40;94.10;;;;;;5010864;28;20087;-74
2020/12/23 05:45:43;;;;;;;36.00;8.10;;;3.30;94.10;;;;;;5010554;28;20056;-67
2020/12/23 05:48:15;;;;;;;38.20;7.87;;;3.40;94.20;;;;;;5009871;28;20045;-74
2020/12/23 05:50:41;;;;;;;38.87;7.67;;;3.40;94.10;;;;;;5011128;28;20133;-73
2020/12/23 05:53:13;;;;;;;50.47;7.70;;;3.40;94.10;;;;;;5010595;28;20364;-74
2020/12/23 05:55:50;;;;;;;47.70;8.70;;;3.30;93.90;;;;;;5010770;28;20041;-74
2020/12/23 05:58:29;;;;;;;52.77;9.03;;;3.30;93.90;;;;;;5009313;28;20042;-74
2020/12/23 06:00:56;;;;;;;41.03;9.07;;;3.30;93.80;;;;;;5010736;28;20128;-74
2020/12/23 06:03:31;;;;;;;41.83;9.93;;;3.20;93.90;;;;;;5009397;28;20064;-74
2020/12/23 06:06:01;;;;;;;52.93;10.77;;;3.20;94.00;;;;;;5010770;28;20042;-74
2020/12/23 06:08:33;;;;;;;44.97;10.40;;;3.10;94.00;;;;;;5010625;28;20069;-74
2020/12/23 06:11:24;;;;;;;49.67;11.90;;;3.10;94.00;;;;;;5010927;28;20054;-74
2020/12/23 06:14:13;;;;;;;43.73;11.60;;;3.10;94.10;;;;;;5008608;28;20491;-74
2020/12/23 06:16:58;;;;;;;59.47;10.50;;;3.10;94.00;;;;;;5010912;28;20030;-74
2020/12/23 06:19:37;;;;;;;51.57;11.43;;;3.10;94.10;;;;;;5003201;28;20041;-74
2020/12/23 06:22:08;;;;;;;52.37;11.50;;;3.10;94.20;;;;;;5009958;28;20038;-73
2020/12/23 06:24:35;;;;;;;49.90;11.30;;;3.10;94.20;;;;;;5010705;28;20038;-74
2020/12/23 06:27:06;;;;;;;43.87;12.53;;;3.20;94.40;;;;;;5010874;28;20053;-74
2020/12/23 06:29:43;;;;;;;60.90;11.73;;;3.10;94.40;;;;;;5010505;28;20030;-74
2020/12/23 06:32:17;;;;;;;66.77;10.57;;;3.20;94.70;;;;;;5010590;28;20454;-74
2020/12/23 06:34:43;;;;;;;52.10;9.93;;;3.20;94.50;;;;;;5009010;28;20384;-74
2020/12/23 06:37:29;;;;;;;37.67;8.43;;;3.20;94.40;;;;;;5010727;28;20096;-74
2020/12/23 06:39:55;;;;;;;58.73;9.70;;;3.20;94.60;;;;;;5010262;28;20141;-74
2020/12/23 06:42:21;;;;;;;64.63;10.07;;;3.20;94.10;;;;;;5010325;28;20029;-74
2020/12/23 06:44:55;;;;;;;50.90;11.30;;;3.20;94.20;;;;;;5010447;28;20093;-74
2020/12/23 06:47:22;;;;;;;89.33;18.37;;;3.20;94.60;;;;;;5012868;28;20064;-74
2020/12/23 06:49:58;;;;;;;49.77;10.77;;;3.20;94.60;;;;;;5013823;28;20454;-74
2020/12/23 06:52:27;;;;;;;49.50;9.00;;;3.20;94.40;;;;;;5013703;28;20045;-74
2020/12/23 06:55:02;;;;;;;51.90;9.70;;;3.20;94.30;;;;;;4995869;28;20045;-72
2020/12/23 06:57:34;;;;;;;49.87;10.73;;;3.20;94.20;;;;;;5014054;28;20400;-74
2020/12/23 07:00:07;;;;;;;38.83;10.60;;;3.20;94.30;;;;;;5013577;28;20100;-74
2020/12/23 07:02:35;;;;;;;40.13;9.40;;;3.10;94.30;;;;;;5013678;28;20558;-74
2020/12/23 07:05:01;;;;;;;28.83;9.00;;;3.10;94.60;;;;;;5013216;28;20034;-74
2020/12/23 07:07:34;;;;;;;42.63;9.87;;;3.10;94.30;;;;;;5013812;28;20045;-74
2020/12/23 07:10:13;;;;;;;70.33;10.53;;;3.10;94.20;;;;;;5013536;28;20475;-74
2020/12/23 07:12:51;;;;;;;47.80;10.37;;;3.00;94.20;;;;;;5013540;28;20268;-74
2020/12/23 07:15:24;;;;;;;47.20;10.43;;;3.00;94.20;;;;;;5012831;28;20037;-74
2020/12/23 07:18:03;;;;;;;69.20;17.17;;;3.00;94.30;;;;;;5013629;28;20092;-74
2020/12/23 07:20:31;;;;;;;62.27;9.17;;;3.00;94.50;;;;;;5013240;28;20490;-74
2020/12/23 07:23:03;;;;;;;52.97;10.13;;;3.00;94.40;;;;;;5013230;28;20048;-74
2020/12/23 07:25:33;;;;;;;72.13;11.47;;;3.00;94.30;;;;;;5013100;28;20061;-74
2020/12/23 07:27:59;;;;;;;52.53;8.70;;;3.00;94.40;;;;;;5013334;28;20045;-74
2020/12/23 07:30:26;;;;;;;45.63;8.63;;;2.90;94.30;;;;;;5013059;28;20037;-74
2020/12/23 07:33:05;;;;;;;36.07;9.37;;;2.90;94.30;;;;;;5013250;28;20495;-75
2020/12/23 07:35:31;;;;;;;69.27;10.43;;;2.90;94.30;;;;;;5011499;28;20073;-74
2020/12/23 07:38:02;;;;;;;69.07;11.77;;;2.80;94.30;;;;;;5013402;28;20054;-74
2020/12/23 07:40:29;;;;;;;75.97;12.67;;;2.80;94.30;;;;;;5013358;28;20465;-74
2020/12/23 07:42:56;;;;;;;61.93;12.97;;;2.80;94.50;;;;;;5013123;28;20108;-74
2020/12/23 07:45:23;;;;;;;98.70;9.23;;;2.80;94.60;;;;;;5012564;28;20038;-74
2020/12/23 07:47:58;;;;;;;67.40;11.40;;;2.80;94.70;;;;;;5012037;28;20088;-74
2020/12/23 07:50:25;;;;;;;102.13;10.57;;;2.80;94.40;;;;;;5012521;28;20084;-73
2020/12/23 07:52:51;;;;;;;72.37;10.10;;;2.80;94.50;;;;;;5012308;28;20057;-74
2020/12/23 07:55:18;;;;;;;53.57;10.80;;;2.80;94.50;;;;;;5012843;28;20518;-74
2020/12/23 07:57:44;;;;;;;83.73;10.93;;;2.80;94.60;;;;;;5011572;28;20045;-74
2020/12/23 08:00:13;;;;;;;59.37;9.40;;;2.80;94.70;;;;;;5013043;28;20029;-74
2020/12/23 08:02:39;;;;;;;58.70;10.07;;;2.90;94.70;;;;;;5012573;28;20040;-74
2020/12/23 08:05:07;;;;;;;77.17;11.10;;;2.90;94.80;;;;;;5012152;28;20045;-74
2020/12/23 08:07:38;;;;;;;47.33;8.67;;;3.00;94.90;;;;;;5012529;28;20553;-74
2020/12/23 08:10:18;;;;;;;62.28;9.50;;;3.00;94.70;;;;;;5012752;28;20065;-74
2020/12/23 08:12:58;;;;;;;78.90;10.93;;;3.00;94.60;;;;;;5012441;28;20038;-74
2020/12/23 08:15:25;;;;;;;68.53;9.80;;;3.00;94.60;;;;;;5012316;28;20124;-74
2020/12/23 08:18:04;;;;;;;73.57;9.00;;;3.00;94.70;;;;;;5012672;28;20064;-74
2020/12/23 08:20:34;;;;;;;95.77;12.33;;;3.00;94.80;;;;;;5010897;28;20479;-74
2020/12/23 08:23:01;;;;;;;67.90;9.18;;;3.00;94.80;;;;;;5012299;28;20069;-74
2020/12/23 08:25:29;;;;;;;88.03;11.10;;;3.10;94.80;;;;;;5011401;28;20042;-74
2020/12/23 08:27:59;;;;;;;47.17;10.43;;;3.10;94.60;;;;;;5011103;28;20050;-74
2020/12/23 08:30:27;;;;;;;94.07;11.93;;;3.10;94.60;;;;;;5011831;28;20038;-74
2020/12/23 08:32:55;;;;;;;71.07;11.90;;;3.00;94.60;;;;;;5012002;28;20034;-74
2020/12/23 08:35:27;;;;;;;67.50;11.87;;;3.00;94.60;;;;;;5011919;28;20036;-76
2020/12/23 08:37:52;;;;;;;82.90;12.73;;;3.10;94.80;;;;;;5010727;28;20046;-74
2020/12/23 08:40:18;;;;;;;61.47;12.43;;;3.10;94.90;;;;;;5011802;28;20042;-74
2020/12/23 08:43:02;;;;;;;70.63;10.70;;;3.20;95.10;;;;;;5011235;28;20045;-74
2020/12/23 08:45:31;;;;;;;85.27;11.47;;;3.30;95.10;;;;;;5010717;28;20394;-74
2020/12/23 08:47:58;;;;;;;76.23;11.33;;;3.30;94.90;;;;;;5011554;28;20408;-74
2020/12/23 08:50:27;;;;;;;94.57;12.83;;;3.30;94.70;;;;;;5012190;28;20038;-75
2020/12/23 08:52:54;;;;;;;62.43;11.50;;;3.40;94.70;;;;;;5011193;28;20069;-74
2020/12/23 08:55:24;;;;;;;56.40;11.63;;;3.40;94.80;;;;;;5011427;28;20033;-74
2020/12/23 08:58:06;;;;;;;149.07;13.00;;;3.40;95.00;;;;;;5010019;28;20056;-74
2020/12/23 09:00:32;;;;;;;81.13;11.30;;;3.50;95.10;;;;;;5007623;28;20570;-74
2020/12/23 09:02:58;;;;;;;131.60;12.40;;;3.60;95.00;;;;;;5013817;28;20063;-74
2020/12/23 09:05:28;;;;;;;127.87;13.17;;;3.60;95.00;;;;;;5031273;28;20479;-74
2020/12/23 09:08:11;;;;;;;63.67;11.70;;;3.60;94.80;;;;;;5031107;28;20045;-74
2020/12/23 09:10:38;;;;;;;60.77;11.37;;;3.60;94.80;;;;;;5031015;28;20083;-74
2020/12/23 09:13:08;;;;;;;82.83;11.23;;;3.60;94.90;;;;;;5029625;28;20033;-74
2020/12/23 09:15:35;;;;;;;45.80;9.85;;;3.70;95.00;;;;;;5030711;28;20049;-74
2020/12/23 09:18:19;;;;;;;62.03;9.93;;;3.80;95.20;;;;;;5031218;28;20053;-74
2020/12/23 09:20:45;;;;;;;60.97;8.40;;;3.90;95.20;;;;;;5030809;28;20509;-74
2020/12/23 09:23:19;;;;;;;130.10;11.20;;;3.90;95.20;;;;;;5029615;28;20042;-74
2020/12/23 09:25:44;;;;;;;61.57;8.60;;;4.00;95.00;;;;;;5030453;28;20049;-75
2020/12/23 09:28:15;;;;;;;48.40;9.10;;;4.00;95.00;;;;;;5029690;28;20037;-74
2020/12/23 09:30:49;;;;;;;67.88;10.30;;;4.10;94.90;;;;;;5030532;28;20482;-74
2020/12/23 09:33:21;;;;;;;71.70;9.43;;;4.10;95.00;;;;;;5029475;28;20437;-74
2020/12/23 09:35:52;;;;;;;47.60;8.37;;;4.10;95.00;;;;;;5030366;28;20037;-74
2020/12/23 09:38:24;;;;;;;80.13;9.88;;;4.20;94.90;;;;;;5031024;28;20045;-74
2020/12/23 09:40:52;;;;;;;43.47;8.40;;;4.20;94.80;;;;;;5029269;28;20431;-74
2020/12/23 09:43:25;;;;;;;68.50;9.47;;;4.10;94.70;;;;;;5030431;28;20045;-74
2020/12/23 09:45:53;;;;;;;39.50;8.40;;;4.20;94.80;;;;;;5030140;28;20067;-74
2020/12/23 09:48:20;;;;;;;42.00;10.33;;;4.20;94.80;;;;;;5030838;28;20049;-74
2020/12/23 09:50:47;;;;;;;49.23;9.07;;;4.20;94.90;;;;;;5030876;28;20513;-74
2020/12/23 09:53:13;;;;;;;39.83;8.37;;;4.30;94.90;;;;;;5029963;28;20112;-74
2020/12/23 09:55:41;;;;;;;81.90;9.57;;;4.30;94.90;;;;;;5030376;28;20044;-74
2020/12/23 09:58:06;;;;;;;33.53;8.47;;;4.30;94.80;;;;;;5030472;28;20049;-74
2020/12/23 10:00:32;;;;;;;36.47;9.33;;;4.40;94.80;;;;;;5030928;28;20048;-74
2020/12/23 10:02:58;;;;;;;47.57;9.10;;;4.40;94.90;;;;;;5030159;28;20526;-74
2020/12/23 10:05:24;;;;;;;33.30;10.00;;;4.40;94.90;;;;;;5030225;28;20057;-75
2020/12/23 10:07:50;;;;;;;41.10;9.27;;;4.50;95.00;;;;;;5030470;28;20046;-74
2020/12/23 10:10:16;;;;;;;27.17;9.23;;;4.60;95.00;;;;;;5028963;28;20490;-74
2020/12/23 10:12:41;;;;;;;30.10;9.23;;;4.60;94.90;;;;;;5028979;28;20095;-74
2020/12/23 10:15:08;;;;;;;20.33;8.23;;;4.70;95.10;;;;;;5028727;28;20072;-74
2020/12/23 10:17:34;;;;;;;27.20;8.80;;;4.80;95.10;;;;;;5030498;28;20034;-74
2020/12/23 10:20:00;;;;;;;31.03;7.77;;;4.90;95.00;;;;;;5031469;28;20494;-74
2020/12/23 10:22:26;;;;;;;15.13;7.90;;;4.90;95.00;;;;;;5033299;28;20124;-75
2020/12/23 10:24:52;;;;;;;17.10;7.50;;;5.00;95.00;;;;;;5033829;28;20419;-75
2020/12/23 10:27:18;;;;;;;18.87;7.63;;;5.10;95.20;;;;;;5034427;28;20059;-75
2020/12/23 10:29:43;;;;;;;16.70;7.50;;;5.20;95.10;;;;;;5032783;28;20037;-75
2020/12/23 10:32:09;;;;;;;36.37;8.90;;;5.20;94.90;;;;;;5034070;28;20068;-74
2020/12/23 10:34:35;;;;;;;16.67;7.63;;;5.20;94.70;;;;;;5032436;28;20490;-74
2020/12/23 10:37:01;;;;;;;32.40;7.63;;;5.20;94.60;;;;;;5034196;28;20558;-74
2020/12/23 10:39:27;;;;;;;18.23;7.73;;;5.30;94.80;;;;;;5034201;28;20030;-74
2020/12/23 10:41:54;;;;;;;19.90;8.10;;;5.30;94.70;;;;;;5032242;28;20033;-75
2020/12/23 10:44:21;;;;;;;19.53;8.30;;;5.40;94.80;;;;;;5032624;28;20521;-75
2020/12/23 10:46:52;;;;;;;18.00;8.50;;;5.40;94.80;;;;;;5033518;28;20034;-74
2020/12/23 10:49:17;;;;;;;24.83;8.63;;;5.50;94.90;;;;;;5034125;28;20033;-74
2020/12/23 10:51:48;;;;;;;19.27;7.40;;;5.60;95.00;;;;;;5033337;28;20042;-73
2020/12/23 10:54:14;;;;;;;19.67;7.75;;;5.60;94.70;;;;;;5033709;28;20038;-74
2020/12/23 10:56:40;;;;;;;20.23;8.70;;;5.50;94.40;;;;;;5033886;28;20037;-74
2020/12/23 10:59:06;;;;;;;18.43;9.07;;;5.50;94.50;;;;;;5033454;28;20060;-74
2020/12/23 11:01:32;;;;;;;16.37;8.73;;;5.50;94.80;;;;;;5033777;28;20534;-74
2020/12/23 11:03:58;;;;;;;17.90;8.73;;;5.50;94.80;;;;;;5033000;28;20109;-74
2020/12/23 11:06:24;;;;;;;24.83;9.53;;;5.60;94.80;;;;;;5033512;28;20350;-75
2020/12/23 11:08:50;;;;;;;17.57;8.63;;;5.60;94.80;;;;;;5033489;28;20395;-74
2020/12/23 11:11:15;;;;;;;19.83;9.43;;;5.60;94.70;;;;;;5033451;28;20116;-74
2020/12/23 11:13:41;;;;;;;19.77;8.90;;;5.60;94.70;;;;;;5033011;28;20096;-74
2020/12/23 11:16:13;;;;;;;18.33;8.70;;;5.60;94.70;;;;;;5032910;28;20120;-74
2020/12/23 11:18:39;;;;;;;19.87;9.07;;;5.60;94.70;;;;;;5032474;28;20057;-74
2020/12/23 11:21:05;;;;;;;19.03;10.00;;;5.60;94.70;;;;;;5033327;28;20068;-74
2020/12/23 11:23:31;;;;;;;18.83;8.30;;;5.60;94.80;;;;;;5032716;28;20445;-75
2020/12/23 11:25:57;;;;;;;17.93;8.77;;;5.70;94.80;;;;;;5033069;28;20041;-74
2020/12/23 11:28:23;;;;;;;18.67;8.40;;;5.60;94.70;;;;;;5032851;28;20041;-74
2020/12/23 11:30:49;;;;;;;15.57;8.37;;;5.70;94.90;;;;;;5032752;28;20045;-75
2020/12/23 11:33:15;;;;;;;18.60;8.30;;;5.70;94.90;;;;;;5032086;28;20104;-75
2020/12/23 11:35:42;;;;;;;19.97;8.40;;;5.80;95.10;;;;;;5032306;28;20033;-74
2020/12/23 11:38:08;;;;;;;18.10;9.07;;;5.80;95.10;;;;;;5031595;28;20479;-74
2020/12/23 11:40:33;;;;;;;14.70;7.90;;;5.90;95.10;;;;;;5032805;28;20128;-75
2020/12/23 11:42:59;;;;;;;16.20;8.53;;;5.90;95.00;;;;;;5032738;28;20042;-75
2020/12/23 11:45:25;;;;;;;18.13;9.03;;;5.90;95.00;;;;;;5031734;28;20125;-75
2020/12/23 11:47:51;;;;;;;17.20;8.63;;;6.00;95.10;;;;;;5032265;28;20499;-75
2020/12/23 11:50:17;;;;;;;17.17;8.37;;;6.00;95.10;;;;;;5031619;28;20030;-74
2020/12/23 11:52:43;;;;;;;18.30;9.03;;;6.10;95.10;;;;;;5032142;28;20044;-74
2020/12/23 11:55:09;;;;;;;19.00;9.10;;;6.10;95.10;;;;;;5031286;28;20041;-74
2020/12/23 11:57:38;;;;;;;14.30;7.50;;;6.20;95.20;;;;;;5031514;28;20072;-74
2020/12/23 12:00:05;;;;;;;17.37;8.27;;;6.20;95.20;;;;;;5031211;28;20402;-75
2020/12/23 12:02:38;;;;;;;16.27;8.17;;;6.30;95.20;;;;;;5015705;28;20132;-75
2020/12/23 12:05:05;;;;;;;16.53;7.80;;;6.30;95.00;;;;;;5031842;28;20037;-74
2020/12/23 12:07:30;;;;;;;15.80;8.27;;;6.30;95.00;;;;;;5032678;28;20449;-74
2020/12/23 12:09:56;;;;;;;15.50;7.43;;;6.30;95.10;;;;;;5032118;28;20038;-75
2020/12/23 12:12:25;;;;;;;13.73;6.97;;;6.40;95.20;;;;;;5032123;28;20037;-75
2020/12/23 12:14:51;;;;;;;14.87;7.23;;;6.50;95.30;;;;;;5030892;28;20052;-75
2020/12/23 12:17:17;;;;;;;13.57;7.03;;;6.50;95.20;;;;;;5029400;28;20038;-75
2020/12/23 12:19:43;;;;;;;13.43;6.63;;;6.60;95.20;;;;;;5014549;28;20041;-75
2020/12/23 12:22:09;;;;;;;12.40;6.67;;;6.60;95.20;;;;;;5016285;28;20053;-74
2020/12/23 12:24:35;;;;;;;16.37;7.00;;;6.70;95.00;;;;;;4992461;28;20031;-75
2020/12/23 12:27:01;;;;;;;12.77;6.50;;;6.70;95.00;;;;;;4992674;28;20506;-74
2020/12/23 12:29:27;;;;;;;13.90;6.97;;;6.70;95.00;;;;;;4992467;28;20031;-75
2020/12/23 12:31:53;;;;;;;12.27;6.17;;;6.70;94.80;;;;;;5023615;28;20047;-75
2020/12/23 12:34:18;;;;;;;13.17;5.80;;;6.70;94.80;;;;;;4992018;28;20042;-75
2020/12/23 12:36:44;;;;;;;12.73;6.20;;;6.70;94.80;;;;;;4992678;28;20030;-74
2020/12/23 12:39:10;;;;;;;15.03;6.60;;;6.70;94.80;;;;;;4992882;28;20046;-74
2020/12/23 12:41:36;;;;;;;13.40;6.20;;;6.70;94.80;;;;;;4992004;28;20121;-74
2020/12/23 12:44:01;;;;;;;13.20;6.70;;;6.60;94.80;;;;;;4990683;28;20088;-75
2020/12/23 12:46:27;;;;;;;15.30;6.37;;;6.60;94.80;;;;;;4991244;28;20035;-75
2020/12/23 12:48:53;;;;;;;14.13;7.10;;;6.60;94.70;;;;;;4991119;28;20081;-75